Time;durP1;ratioP1;P1;durP2;ratioP2;P2;SDS_P1;SDS_P2;PMS_P1;PMS_P2;Temp;Humidity;BMP_temperature;BMP_pressure;BME280_temperature;BME280_humidity;BME280_pressure;Samples;Min_cycle;Max_cycle;Signal;HPM_P1;HPM_P2
2021/12/26 00:00:24;;;;;;;8.80;6.57;;;2.20;99.90;;;;;;5019102;28;20421;-70
2021/12/26 00:02:50;;;;;;;10.33;6.00;;;2.20;99.90;;;;;;5019123;28;20418;-70
2021/12/26 00:05:16;;;;;;;6.30;5.67;;;2.20;99.90;;;;;;5011705;28;20538;-71
2021/12/26 00:07:42;;;;;;;6.00;5.40;;;2.30;99.90;;;;;;5018582;28;20210;-70
2021/12/26 00:10:11;;;;;;;6.13;5.50;;;2.30;99.90;;;;;;5019470;28;20504;-72
2021/12/26 00:12:36;;;;;;;6.53;5.50;;;2.30;99.90;;;;;;5019723;28;20176;-71
2021/12/26 00:15:03;;;;;;;6.00;5.20;;;2.40;99.90;;;;;;5017104;28;20446;-70
2021/12/26 00:17:29;;;;;;;7.20;5.47;;;2.40;99.90;;;;;;5018882;28;20186;-71
2021/12/26 00:19:55;;;;;;;8.37;5.50;;;2.40;99.90;;;;;;5018546;28;20505;-69
2021/12/26 00:22:20;;;;;;;7.03;5.30;;;2.40;99.90;;;;;;5019521;28;20183;-73
2021/12/26 00:24:46;;;;;;;5.63;5.10;;;2.40;99.90;;;;;;5019420;28;20207;-70
2021/12/26 00:27:14;;;;;;;5.67;4.93;;;2.50;99.90;;;;;;5017915;23;20222;-68
2021/12/26 00:29:39;;;;;;;6.00;4.70;;;2.50;99.90;;;;;;5009906;28;20219;-69
2021/12/26 00:32:06;;;;;;;5.97;5.30;;;2.50;99.90;;;;;;5016412;28;20497;-69
2021/12/26 00:34:32;;;;;;;8.40;5.70;;;2.50;99.90;;;;;;5014838;28;20222;-68
2021/12/26 00:36:57;;;;;;;7.30;5.93;;;2.60;99.90;;;;;;5015433;28;20488;-68
2021/12/26 00:39:23;;;;;;;7.53;5.73;;;2.60;99.90;;;;;;5010158;28;20439;-67
2021/12/26 00:41:48;;;;;;;5.27;4.80;;;2.60;99.90;;;;;;5014477;28;20187;-67
2021/12/26 00:44:14;;;;;;;5.93;5.30;;;2.50;99.90;;;;;;5015033;28;20172;-67
2021/12/26 00:46:40;;;;;;;7.90;5.30;;;2.60;99.90;;;;;;5015186;28;20176;-68
2021/12/26 00:49:05;;;;;;;6.00;5.30;;;2.60;99.90;;;;;;5015115;28;20200;-69
2021/12/26 00:51:31;;;;;;;7.63;6.50;;;2.70;99.90;;;;;;5015426;28;20179;-68
2021/12/26 00:53:57;;;;;;;6.30;5.70;;;2.70;99.90;;;;;;5016001;28;20439;-69
2021/12/26 00:56:22;;;;;;;9.33;5.93;;;2.80;99.90;;;;;;5015241;28;20653;-69
2021/12/26 00:58:48;;;;;;;8.37;5.60;;;2.70;99.90;;;;;;5015637;28;20202;-68
2021/12/26 01:01:15;;;;;;;7.03;5.50;;;2.80;99.90;;;;;;5014371;28;20375;-69
2021/12/26 01:03:41;;;;;;;8.30;5.93;;;2.80;99.90;;;;;;5016036;28;20191;-68
2021/12/26 01:06:07;;;;;;;6.43;4.97;;;2.80;99.90;;;;;;5015658;28;20485;-69
2021/12/26 01:08:37;;;;;;;6.90;4.97;;;2.80;99.90;;;;;;5016358;28;20827;-68
2021/12/26 01:11:33;;;;;;;5.73;5.03;;;2.90;99.90;;;;;;5015000;28;20462;-68
2021/12/26 01:14:00;;;;;;;6.30;4.93;;;2.90;99.90;;;;;;5015484;28;20476;-68
2021/12/26 01:16:27;;;;;;;5.60;5.10;;;3.00;99.90;;;;;;5014634;28;20415;-68
2021/12/26 01:18:55;;;;;;;5.57;4.40;;;3.00;99.90;;;;;;5015600;28;20430;-68
2021/12/26 01:21:25;;;;;;;5.70;4.80;;;3.10;99.90;;;;;;5017696;28;20416;-68
2021/12/26 01:23:58;;;;;;;5.90;4.73;;;3.00;99.90;;;;;;5021463;28;20465;-68
2021/12/26 01:26:25;;;;;;;4.77;4.13;;;2.90;99.90;;;;;;5024373;28;20402;-68
2021/12/26 01:28:52;;;;;;;5.70;4.70;;;2.90;99.90;;;;;;5023222;28;20579;-68
2021/12/26 01:31:20;;;;;;;5.27;4.77;;;2.80;99.90;;;;;;5025425;28;20414;-67
2021/12/26 01:33:48;;;;;;;4.93;4.47;;;2.80;99.90;;;;;;5024571;28;20426;-68
2021/12/26 01:36:14;;;;;;;4.70;4.10;;;2.70;99.90;;;;;;5021413;28;20426;-69
2021/12/26 01:38:39;;;;;;;5.10;3.90;;;2.70;99.90;;;;;;5012607;28;20455;-68
2021/12/26 01:41:09;;;;;;;4.57;3.77;;;2.70;99.90;;;;;;5007847;28;20176;-69
2021/12/26 01:43:36;;;;;;;4.60;4.10;;;2.80;99.90;;;;;;5007289;28;20180;-68
2021/12/26 01:46:03;;;;;;;4.10;3.70;;;2.80;99.90;;;;;;5004331;28;20935;-68
2021/12/26 01:48:28;;;;;;;4.10;3.70;;;2.90;99.90;;;;;;5002810;28;20435;-69
2021/12/26 01:50:54;;;;;;;4.03;3.63;;;2.90;99.90;;;;;;5001586;28;20435;-68
2021/12/26 01:53:23;;;;;;;4.43;3.93;;;2.90;99.90;;;;;;4999929;28;20196;-68
2021/12/26 01:55:50;;;;;;;4.47;4.07;;;2.90;99.90;;;;;;5021540;28;20422;-68
2021/12/26 01:58:27;;;;;;;4.60;3.80;;;3.00;99.90;;;;;;5019103;28;20424;-69
2021/12/26 02:00:59;;;;;;;4.50;4.10;;;3.00;99.90;;;;;;5015718;28;20446;-68
2021/12/26 02:03:25;;;;;;;4.67;4.03;;;3.00;99.90;;;;;;5014252;28;20750;-68
2021/12/26 02:05:51;;;;;;;4.17;3.77;;;2.90;99.90;;;;;;5013646;28;20502;-67
2021/12/26 02:08:17;;;;;;;4.40;4.00;;;2.80;99.90;;;;;;5013845;28;20434;-68
2021/12/26 02:10:43;;;;;;;4.70;4.00;;;2.70;99.90;;;;;;5010356;28;20595;-68
2021/12/26 02:13:09;;;;;;;5.17;4.60;;;2.70;99.90;;;;;;5013859;28;20490;-68
2021/12/26 02:15:35;;;;;;;4.50;4.10;;;2.70;99.90;;;;;;5013308;28;20520;-69
2021/12/26 02:18:01;;;;;;;4.83;4.17;;;2.70;99.90;;;;;;5011903;28;20439;-68
2021/12/26 02:20:55;;;;;;;5.37;4.50;;;2.70;99.90;;;;;;5014441;28;20415;-69
2021/12/26 02:23:39;;;;;;;4.90;4.10;;;2.60;99.90;;;;;;5014180;28;20184;-68
2021/12/26 02:28:43;;;;;;;5.60;4.37;;;2.50;99.90;;;;;;5010467;28;20474;-67
2021/12/26 02:31:08;;;;;;;5.57;4.30;;;2.60;99.90;;;;;;5013853;28;20490;-68
2021/12/26 02:33:35;;;;;;;5.27;4.40;;;2.60;99.90;;;;;;5013885;28;20505;-69
2021/12/26 02:36:01;;;;;;;6.40;4.90;;;2.70;99.90;;;;;;5013524;28;20172;-68
2021/12/26 02:38:27;;;;;;;5.97;5.10;;;2.80;99.90;;;;;;5014180;28;20434;-69
2021/12/26 02:40:55;;;;;;;5.10;4.60;;;2.80;99.90;;;;;;5013197;28;20418;-69
2021/12/26 02:43:24;;;;;;;5.83;4.67;;;2.90;99.90;;;;;;5015782;28;20458;-69
2021/12/26 02:45:49;;;;;;;6.30;4.90;;;3.00;99.90;;;;;;5015796;28;20930;-69
2021/12/26 02:48:16;;;;;;;5.73;4.63;;;2.90;99.90;;;;;;5011742;28;20443;-68
2021/12/26 02:50:43;;;;;;;5.13;4.60;;;2.80;99.90;;;;;;5010851;28;20176;-68
2021/12/26 02:53:12;;;;;;;5.27;4.60;;;2.80;99.90;;;;;;5012502;28;21022;-68
2021/12/26 02:55:38;;;;;;;5.63;5.03;;;2.90;99.90;;;;;;5012219;28;20434;-68
2021/12/26 02:58:06;;;;;;;6.23;5.10;;;3.00;99.90;;;;;;5012782;28;20436;-68
2021/12/26 03:00:36;;;;;;;5.07;4.57;;;3.10;99.90;;;;;;5012532;28;20497;-68
2021/12/26 03:03:05;;;;;;;5.33;4.80;;;3.20;99.90;;;;;;5012746;28;20421;-68
2021/12/26 03:05:34;;;;;;;6.00;5.40;;;3.30;99.90;;;;;;5012116;28;20414;-68
2021/12/26 03:08:00;;;;;;;5.10;4.57;;;3.30;99.90;;;;;;5012480;28;20541;-68
2021/12/26 03:10:26;;;;;;;6.97;5.67;;;3.30;99.90;;;;;;5012429;28;20552;-68
2021/12/26 03:12:55;;;;;;;5.87;4.80;;;3.30;99.90;;;;;;5011655;28;20267;-69
2021/12/26 03:15:21;;;;;;;5.60;4.47;;;3.30;99.90;;;;;;5011443;28;20452;-68
2021/12/26 03:17:47;;;;;;;6.37;5.53;;;3.30;99.90;;;;;;5011952;28;20469;-68
2021/12/26 03:20:16;;;;;;;5.70;5.10;;;3.30;99.90;;;;;;5012618;28;20786;-67
2021/12/26 03:22:44;;;;;;;7.87;5.53;;;3.20;99.90;;;;;;5011911;28;20545;-68
2021/12/26 03:25:13;;;;;;;6.20;5.13;;;3.10;99.90;;;;;;5012843;28;20443;-68
2021/12/26 03:27:39;;;;;;;6.00;4.70;;;3.10;99.90;;;;;;5011953;28;20481;-68
2021/12/26 03:30:10;;;;;;;6.50;5.27;;;3.10;99.90;;;;;;5012024;28;20512;-68
2021/12/26 03:32:35;;;;;;;5.07;4.20;;;3.00;99.90;;;;;;5012144;28;20176;-68
2021/12/26 03:35:02;;;;;;;5.73;4.73;;;3.10;99.90;;;;;;5012309;28;20430;-68
2021/12/26 03:37:28;;;;;;;5.17;4.67;;;3.20;99.90;;;;;;5011899;28;20206;-67
2021/12/26 03:39:55;;;;;;;5.67;5.07;;;3.20;99.90;;;;;;5012110;28;20419;-69
2021/12/26 03:42:21;;;;;;;5.30;4.80;;;3.30;99.90;;;;;;5012491;28;20433;-69
2021/12/26 03:44:48;;;;;;;7.30;5.43;;;3.30;99.90;;;;;;5011070;28;20426;-68
2021/12/26 03:47:13;;;;;;;5.33;4.70;;;3.40;99.90;;;;;;5011590;28;20442;-68
2021/12/26 03:49:39;;;;;;;5.83;4.77;;;3.40;99.90;;;;;;5011940;28;20799;-68
2021/12/26 03:52:05;;;;;;;6.97;5.47;;;3.30;99.90;;;;;;5011821;28;20238;-69
2021/12/26 03:54:30;;;;;;;5.77;4.83;;;3.20;99.90;;;;;;5011929;28;20262;-68
2021/12/26 03:56:56;;;;;;;6.10;5.20;;;3.20;99.90;;;;;;5011538;28;20975;-68
2021/12/26 03:59:21;;;;;;;5.97;4.67;;;3.30;99.90;;;;;;5011660;28;20299;-68
2021/12/26 04:01:47;;;;;;;6.63;4.87;;;3.30;99.90;;;;;;5011844;28;20187;-68
2021/12/26 04:04:13;;;;;;;6.27;5.57;;;3.20;99.90;;;;;;5011793;28;20547;-69
2021/12/26 04:06:39;;;;;;;5.97;5.13;;;3.20;99.90;;;;;;5011333;28;20192;-67
2021/12/26 04:09:07;;;;;;;7.40;5.47;;;3.20;99.90;;;;;;5011493;28;20215;-68
2021/12/26 04:11:32;;;;;;;7.30;5.93;;;3.30;99.90;;;;;;5011962;28;20413;-68
2021/12/26 04:13:58;;;;;;;7.33;5.80;;;3.30;99.90;;;;;;5011675;28;20410;-68
2021/12/26 04:16:24;;;;;;;5.93;5.33;;;3.20;99.90;;;;;;5011435;28;20176;-68
2021/12/26 04:18:49;;;;;;;6.67;5.97;;;3.30;99.90;;;;;;5011460;28;20204;-68
2021/12/26 04:21:15;;;;;;;7.63;5.93;;;3.30;99.90;;;;;;5010922;28;20193;-67
2021/12/26 04:23:40;;;;;;;7.80;5.90;;;3.30;99.90;;;;;;5010942;28;20219;-68
2021/12/26 04:26:06;;;;;;;6.80;5.43;;;3.30;99.90;;;;;;5011316;28;20249;-68
2021/12/26 04:28:31;;;;;;;5.37;4.87;;;3.30;99.90;;;;;;5011297;28;20221;-68
2021/12/26 04:30:58;;;;;;;7.03;5.57;;;3.20;99.90;;;;;;5011417;28;20172;-68
2021/12/26 04:33:24;;;;;;;6.40;5.63;;;3.10;99.90;;;;;;5011751;28;20180;-68
2021/12/26 04:35:49;;;;;;;6.90;5.43;;;3.10;99.90;;;;;;5014905;28;20465;-68
2021/12/26 04:38:15;;;;;;;5.40;4.50;;;3.20;99.90;;;;;;5015027;28;20599;-68
2021/12/26 04:40:40;;;;;;;8.00;5.97;;;3.10;99.90;;;;;;5014180;28;20219;-68
2021/12/26 04:43:06;;;;;;;7.57;6.37;;;3.10;99.90;;;;;;5014579;28;20544;-68
2021/12/26 04:45:31;;;;;;;7.33;5.57;;;3.10;99.90;;;;;;5014933;28;20663;-68
2021/12/26 04:48:01;;;;;;;6.90;5.23;;;3.00;99.90;;;;;;5015110;28;20203;-68
2021/12/26 04:50:27;;;;;;;6.13;5.53;;;2.90;99.90;;;;;;5013199;28;20205;-69
2021/12/26 04:52:53;;;;;;;6.50;5.80;;;3.00;99.90;;;;;;5015212;28;20418;-67
2021/12/26 04:55:23;;;;;;;7.00;5.40;;;2.90;99.90;;;;;;5014351;28;20413;-68
2021/12/26 04:57:50;;;;;;;9.00;6.50;;;3.00;99.90;;;;;;5014664;28;20191;-68
2021/12/26 05:00:18;;;;;;;7.77;6.03;;;3.10;99.90;;;;;;5014541;28;20406;-68
2021/12/26 05:02:45;;;;;;;7.10;6.00;;;3.20;99.90;;;;;;5014723;28;20441;-68
2021/12/26 05:05:12;;;;;;;6.00;5.40;;;3.20;99.90;;;;;;5014522;28;20403;-68
2021/12/26 05:07:39;;;;;;;5.70;5.10;;;3.20;99.90;;;;;;5014493;28;20517;-68
2021/12/26 05:10:07;;;;;;;6.70;5.43;;;3.10;99.90;;;;;;5014556;28;20501;-68
2021/12/26 05:12:32;;;;;;;7.07;5.27;;;3.20;99.90;;;;;;5014219;28;21035;-68
2021/12/26 05:14:58;;;;;;;7.00;6.20;;;3.20;99.90;;;;;;5014440;28;20497;-68
2021/12/26 05:17:24;;;;;;;6.40;5.50;;;3.20;99.90;;;;;;5014116;28;20192;-68
2021/12/26 05:19:49;;;;;;;7.20;5.53;;;3.40;99.90;;;;;;5014466;28;20545;-68
2021/12/26 05:22:15;;;;;;;8.67;5.87;;;3.40;99.90;;;;;;5012277;28;20179;-68
2021/12/26 05:24:40;;;;;;;6.80;6.07;;;3.40;99.90;;;;;;5014457;28;20588;-68
2021/12/26 05:27:06;;;;;;;7.60;5.97;;;3.40;99.90;;;;;;5013909;28;20532;-67
2021/12/26 05:29:31;;;;;;;6.17;5.57;;;3.30;99.90;;;;;;5013684;28;20238;-68
2021/12/26 05:31:57;;;;;;;6.63;5.43;;;3.30;99.90;;;;;;5013644;28;20660;-67
2021/12/26 05:34:22;;;;;;;7.50;6.23;;;3.40;99.90;;;;;;5013528;28;20169;-68
2021/12/26 05:36:48;;;;;;;8.73;6.20;;;3.40;99.90;;;;;;5013590;28;20260;-68
2021/12/26 05:39:14;;;;;;;7.93;5.93;;;3.40;99.90;;;;;;5013874;28;20173;-68
2021/12/26 05:41:41;;;;;;;7.80;6.40;;;3.50;99.90;;;;;;5012868;28;20588;-68
2021/12/26 05:44:07;;;;;;;8.00;6.30;;;3.50;99.90;;;;;;5013199;28;20470;-68
2021/12/26 05:46:32;;;;;;;6.13;5.47;;;3.40;99.90;;;;;;5012749;28;20506;-68
2021/12/26 05:49:00;;;;;;;7.47;6.20;;;3.40;99.90;;;;;;5013042;28;20475;-68
2021/12/26 05:51:26;;;;;;;7.07;6.37;;;3.30;99.90;;;;;;5013495;28;20171;-67
2021/12/26 05:53:51;;;;;;;7.80;6.47;;;3.30;99.90;;;;;;5013463;28;20423;-68
2021/12/26 05:56:17;;;;;;;6.47;5.80;;;3.30;99.90;;;;;;5013128;28;20468;-68
2021/12/26 05:58:43;;;;;;;7.00;6.00;;;3.30;99.90;;;;;;5013734;28;20196;-68
2021/12/26 06:01:08;;;;;;;6.90;5.83;;;3.30;99.90;;;;;;5012312;28;20276;-68
2021/12/26 06:03:34;;;;;;;7.93;6.50;;;3.30;99.90;;;;;;5013338;28;20544;-68
2021/12/26 06:06:00;;;;;;;8.13;6.70;;;3.40;99.90;;;;;;5012703;28;20495;-68
2021/12/26 06:08:25;;;;;;;8.97;6.90;;;3.40;99.90;;;;;;5013246;28;20279;-68
2021/12/26 06:10:51;;;;;;;7.60;6.03;;;3.40;99.90;;;;;;5014021;28;20180;-68
2021/12/26 06:13:16;;;;;;;8.73;6.50;;;3.30;99.90;;;;;;5013515;28;20182;-68
2021/12/26 06:15:42;;;;;;;10.00;6.93;;;3.20;99.90;;;;;;5012817;28;20212;-68
2021/12/26 06:18:07;;;;;;;7.90;6.37;;;3.20;99.90;;;;;;5013489;28;20598;-68
2021/12/26 06:20:33;;;;;;;8.70;7.13;;;3.20;99.90;;;;;;5013096;28;20181;-68
2021/12/26 06:22:59;;;;;;;7.50;6.10;;;3.30;99.90;;;;;;5013044;28;20203;-67
2021/12/26 06:25:24;;;;;;;9.30;7.57;;;3.30;99.90;;;;;;5007737;28;20175;-68
2021/12/26 06:27:50;;;;;;;6.70;6.00;;;3.20;99.90;;;;;;5002150;28;20216;-68
2021/12/26 06:30:16;;;;;;;9.03;6.77;;;3.30;99.90;;;;;;5026986;23;20244;-69
2021/12/26 06:32:42;;;;;;;7.40;6.40;;;3.30;99.90;;;;;;5004864;28;20191;-69
2021/12/26 06:35:08;;;;;;;7.50;6.20;;;3.30;99.90;;;;;;5008924;28;20921;-70
2021/12/26 06:37:34;;;;;;;7.07;5.90;;;3.30;99.90;;;;;;5006743;28;20412;-70
2021/12/26 06:40:00;;;;;;;7.43;6.10;;;3.20;99.90;;;;;;5014377;28;20427;-70
2021/12/26 06:42:28;;;;;;;7.97;5.70;;;3.20;99.90;;;;;;5014430;28;20440;-70
2021/12/26 06:44:54;;;;;;;8.47;5.97;;;3.20;99.90;;;;;;5010821;28;20415;-70
2021/12/26 06:47:20;;;;;;;8.17;6.13;;;3.20;99.90;;;;;;5013063;28;20417;-69
2021/12/26 06:49:46;;;;;;;8.60;6.50;;;3.10;99.90;;;;;;5013708;28;20247;-70
2021/12/26 06:52:12;;;;;;;8.30;5.80;;;3.10;99.90;;;;;;5012440;28;20439;-69
2021/12/26 06:54:38;;;;;;;7.93;6.30;;;3.00;99.90;;;;;;5014809;28;20183;-70
2021/12/26 06:57:04;;;;;;;7.80;5.83;;;3.00;99.90;;;;;;5013494;28;20160;-68
2021/12/26 06:59:30;;;;;;;7.60;6.13;;;3.00;99.90;;;;;;5015063;28;20514;-70
2021/12/26 07:01:56;;;;;;;9.03;6.23;;;3.10;99.90;;;;;;5014348;28;20448;-70
2021/12/26 07:04:24;;;;;;;7.43;6.57;;;3.00;99.90;;;;;;5014780;28;20418;-70
2021/12/26 07:06:50;;;;;;;10.20;7.00;;;3.10;99.90;;;;;;5013255;28;20186;-70
2021/12/26 07:09:15;;;;;;;8.70;6.70;;;3.10;99.90;;;;;;5014179;28;20450;-70
2021/12/26 07:11:41;;;;;;;9.80;6.47;;;3.10;99.90;;;;;;5013884;28;20211;-69
2021/12/26 07:14:07;;;;;;;7.57;6.70;;;3.10;99.90;;;;;;5014714;28;20172;-70
2021/12/26 07:16:33;;;;;;;8.20;6.47;;;3.20;99.90;;;;;;5014276;28;20809;-70
2021/12/26 07:18:58;;;;;;;10.17;6.70;;;3.30;99.90;;;;;;5015788;28;20418;-69
2021/12/26 07:21:24;;;;;;;8.83;6.60;;;3.30;99.90;;;;;;5016628;28;20211;-70
2021/12/26 07:23:50;;;;;;;8.77;6.80;;;3.30;99.90;;;;;;5014413;28;20179;-70
2021/12/26 07:26:15;;;;;;;9.93;7.00;;;3.30;99.90;;;;;;5014233;28;20582;-69
2021/12/26 07:28:41;;;;;;;9.37;7.20;;;3.20;99.90;;;;;;5014523;28;20183;-69
2021/12/26 07:31:06;;;;;;;10.43;7.20;;;3.20;99.90;;;;;;5014352;28;20259;-70
2021/12/26 07:33:32;;;;;;;9.60;7.43;;;3.30;99.90;;;;;;5013622;28;20180;-70
2021/12/26 07:35:57;;;;;;;8.80;7.50;;;3.30;99.90;;;;;;5014028;28;20503;-69
2021/12/26 07:38:23;;;;;;;8.67;6.87;;;3.30;99.90;;;;;;5014546;28;20642;-70
2021/12/26 07:40:48;;;;;;;10.00;7.33;;;3.40;99.90;;;;;;5014601;28;20191;-71
2021/12/26 07:43:14;;;;;;;7.07;6.10;;;3.40;99.90;;;;;;5014258;28;20168;-70
2021/12/26 07:45:40;;;;;;;10.20;7.30;;;3.30;99.90;;;;;;5014069;28;20576;-69
2021/12/26 07:48:06;;;;;;;7.87;7.03;;;3.30;99.90;;;;;;5015384;28;20235;-70
2021/12/26 07:50:32;;;;;;;9.77;7.17;;;3.40;99.90;;;;;;5014865;28;20989;-70
2021/12/26 07:53:04;;;;;;;8.83;6.67;;;3.40;99.90;;;;;;5013629;28;20701;-70
2021/12/26 07:55:30;;;;;;;8.47;6.50;;;3.30;99.90;;;;;;5013325;28;20492;-69
2021/12/26 07:57:56;;;;;;;6.73;5.50;;;3.30;99.90;;;;;;5014473;28;20413;-69
2021/12/26 08:00:21;;;;;;;7.83;6.67;;;3.40;99.90;;;;;;5013696;28;20441;-70
2021/12/26 08:02:47;;;;;;;10.00;7.30;;;3.40;99.90;;;;;;5014284;28;20172;-69
2021/12/26 08:05:14;;;;;;;9.70;7.30;;;3.30;99.90;;;;;;5013553;28;20192;-69
2021/12/26 08:07:40;;;;;;;8.03;7.00;;;3.30;99.90;;;;;;5013987;28;20184;-70
2021/12/26 08:10:07;;;;;;;7.23;5.97;;;3.30;99.90;;;;;;5016886;28;20855;-70
2021/12/26 08:12:32;;;;;;;8.50;6.93;;;3.30;99.90;;;;;;5018093;28;20201;-69
2021/12/26 08:15:01;;;;;;;9.20;6.80;;;3.40;99.90;;;;;;5017502;28;20955;-71
2021/12/26 08:17:27;;;;;;;11.23;7.83;;;3.30;99.90;;;;;;5016893;28;20695;-69
2021/12/26 08:19:52;;;;;;;9.33;7.17;;;3.30;99.90;;;;;;5017781;28;20411;-69
2021/12/26 08:22:18;;;;;;;8.47;6.77;;;3.40;99.90;;;;;;5018752;28;20273;-71
2021/12/26 08:24:43;;;;;;;9.20;6.73;;;3.40;99.90;;;;;;5018766;28;20518;-72
2021/12/26 08:27:09;;;;;;;10.40;7.37;;;3.50;99.90;;;;;;5018289;28;20184;-69
2021/12/26 08:29:34;;;;;;;9.90;7.73;;;3.50;99.90;;;;;;5017439;28;20212;-71
2021/12/26 08:32:01;;;;;;;7.10;6.30;;;3.60;99.90;;;;;;5017293;28;20688;-70
2021/12/26 08:34:27;;;;;;;9.87;7.17;;;3.60;99.90;;;;;;5016436;28;20178;-70
2021/12/26 08:36:59;;;;;;;9.53;6.77;;;3.70;99.90;;;;;;5012809;28;20479;-71
2021/12/26 08:39:26;;;;;;;7.63;5.93;;;3.60;99.90;;;;;;5017084;28;20540;-70
2021/12/26 08:41:52;;;;;;;8.60;6.60;;;3.50;99.90;;;;;;5019277;28;20493;-70
2021/12/26 08:44:18;;;;;;;7.70;6.13;;;3.50;99.90;;;;;;5020509;28;20416;-70
2021/12/26 08:46:45;;;;;;;9.67;7.07;;;3.50;99.90;;;;;;5014946;28;20184;-73
2021/12/26 08:49:11;;;;;;;10.40;7.00;;;3.70;99.90;;;;;;5007418;28;20848;-69
2021/12/26 08:51:37;;;;;;;8.63;6.33;;;3.60;99.90;;;;;;5011648;28;20549;-71
2021/12/26 08:54:04;;;;;;;7.93;6.50;;;3.60;99.90;;;;;;5017564;28;20822;-72
2021/12/26 08:56:30;;;;;;;8.73;6.67;;;3.70;99.90;;;;;;4997533;28;20489;-71
2021/12/26 08:58:55;;;;;;;9.73;7.60;;;3.80;99.90;;;;;;5013945;28;20812;-71
2021/12/26 09:01:21;;;;;;;8.87;6.80;;;3.90;99.90;;;;;;5012550;28;20828;-71
2021/12/26 09:03:47;;;;;;;8.50;6.70;;;3.90;99.90;;;;;;5014110;28;20231;-71
2021/12/26 09:06:13;;;;;;;9.33;6.73;;;4.00;99.90;;;;;;5014473;28;20221;-70
2021/12/26 09:08:39;;;;;;;9.27;6.83;;;3.90;99.90;;;;;;5014786;28;20713;-70
2021/12/26 09:11:04;;;;;;;10.00;6.70;;;3.90;99.90;;;;;;5013495;28;20489;-68
2021/12/26 09:13:33;;;;;;;7.73;6.93;;;4.00;99.90;;;;;;5013605;28;20444;-72
2021/12/26 09:15:59;;;;;;;9.03;7.83;;;4.00;99.90;;;;;;5015341;28;20303;-70
2021/12/26 09:18:25;;;;;;;8.30;7.10;;;4.10;99.90;;;;;;5010680;28;20827;-71
2021/12/26 09:20:51;;;;;;;8.00;6.87;;;4.10;99.90;;;;;;5012225;28;20473;-69
2021/12/26 09:23:17;;;;;;;11.00;7.50;;;4.10;99.90;;;;;;5013717;28;20212;-73
2021/12/26 09:25:42;;;;;;;9.20;7.70;;;4.00;99.90;;;;;;5008350;28;20226;-70
2021/12/26 09:28:09;;;;;;;8.80;7.00;;;4.10;99.90;;;;;;5013614;28;20202;-70
2021/12/26 09:30:35;;;;;;;8.67;6.97;;;4.10;99.90;;;;;;5014685;28;20758;-71
2021/12/26 09:33:01;;;;;;;8.93;7.30;;;4.10;99.90;;;;;;5016032;28;20932;-71
2021/12/26 09:35:26;;;;;;;8.70;7.03;;;4.10;99.90;;;;;;5014973;28;20442;-71
2021/12/26 09:37:52;;;;;;;10.27;7.03;;;4.20;99.90;;;;;;5014162;28;20236;-71
2021/12/26 09:40:20;;;;;;;8.70;7.37;;;4.30;99.90;;;;;;5014377;28;20269;-70
2021/12/26 09:42:46;;;;;;;7.87;6.70;;;4.50;99.90;;;;;;5015370;28;20251;-69
2021/12/26 09:45:13;;;;;;;10.17;6.90;;;4.50;99.90;;;;;;5017544;28;20445;-74
2021/12/26 09:47:40;;;;;;;8.80;7.40;;;4.50;99.90;;;;;;5013702;28;21030;-72
2021/12/26 09:50:08;;;;;;;10.27;7.37;;;4.60;99.90;;;;;;5018483;28;20476;-72
2021/12/26 09:52:33;;;;;;;8.97;7.07;;;4.60;99.90;;;;;;5014614;28;20494;-73
2021/12/26 09:55:00;;;;;;;11.60;7.80;;;4.50;99.90;;;;;;5011503;28;20541;-72
2021/12/26 09:57:27;;;;;;;10.17;7.60;;;4.60;99.90;;;;;;5012373;28;20763;-71
2021/12/26 09:59:53;;;;;;;8.63;7.17;;;4.60;99.90;;;;;;5005995;28;20511;-76
2021/12/26 10:02:20;;;;;;;7.67;6.23;;;4.70;99.90;;;;;;5014398;28;20487;-73
2021/12/26 10:04:48;;;;;;;10.57;7.30;;;4.70;99.90;;;;;;5019833;28;20512;-73
2021/12/26 10:07:17;;;;;;;8.30;7.20;;;4.70;99.90;;;;;;5017198;28;20483;-72
2021/12/26 10:09:48;;;;;;;9.30;7.23;;;4.60;99.90;;;;;;5018726;28;20450;-72
2021/12/26 10:12:16;;;;;;;9.40;6.73;;;4.70;99.90;;;;;;5001708;28;20475;-71
2021/12/26 10:14:46;;;;;;;8.73;7.00;;;4.80;99.90;;;;;;5012004;28;20429;-71
2021/12/26 10:17:19;;;;;;;8.10;7.00;;;4.90;99.90;;;;;;5014104;28;20395;-72
2021/12/26 10:19:47;;;;;;;6.80;6.10;;;5.00;99.90;;;;;;5017456;28;20435;-70
2021/12/26 10:22:20;;;;;;;8.63;6.80;;;4.90;99.90;;;;;;5018318;28;20444;-71
2021/12/26 10:24:49;;;;;;;9.00;7.23;;;4.90;99.90;;;;;;5019045;28;20464;-71
2021/12/26 10:27:28;;;;;;;9.63;7.30;;;4.90;99.90;;;;;;5020537;28;20414;-70
2021/12/26 10:29:55;;;;;;;8.37;6.67;;;4.90;99.90;;;;;;5021964;28;20447;-71
2021/12/26 10:32:24;;;;;;;9.00;6.40;;;4.80;99.90;;;;;;5030014;28;20456;-71
2021/12/26 10:34:56;;;;;;;9.07;7.10;;;4.80;99.90;;;;;;5030531;28;20893;-71
2021/12/26 10:37:34;;;;;;;8.87;7.07;;;4.90;99.90;;;;;;5022217;28;20410;-71
2021/12/26 10:40:22;;;;;;;10.43;7.13;;;4.80;99.90;;;;;;5017308;28;20418;-70
2021/12/26 10:42:53;;;;;;;10.03;6.80;;;4.70;99.90;;;;;;5020996;28;20424;-71
2021/12/26 10:45:21;;;;;;;8.43;7.30;;;4.80;99.90;;;;;;5021053;28;20637;-71
2021/12/26 10:47:56;;;;;;;8.40;6.70;;;4.90;99.90;;;;;;5020570;28;20412;-72
2021/12/26 10:50:24;;;;;;;8.30;6.53;;;4.90;99.90;;;;;;5019800;28;20469;-70
2021/12/26 10:52:59;;;;;;;8.20;6.80;;;5.00;99.90;;;;;;5019697;28;20406;-72
2021/12/26 10:55:31;;;;;;;9.70;7.43;;;4.90;99.90;;;;;;5007992;28;20445;-72
2021/12/26 10:58:01;;;;;;;7.90;6.50;;;4.70;99.90;;;;;;5005753;28;20414;-71
2021/12/26 11:00:30;;;;;;;7.57;6.47;;;4.70;99.90;;;;;;5023444;28;20476;-72
2021/12/26 11:03:00;;;;;;;9.70;7.27;;;4.70;99.90;;;;;;5021778;28;20417;-73
2021/12/26 11:05:38;;;;;;;8.17;6.87;;;4.70;99.90;;;;;;5022709;28;20434;-70
2021/12/26 11:08:11;;;;;;;7.63;6.37;;;4.70;99.90;;;;;;5023011;28;20440;-71
2021/12/26 11:10:38;;;;;;;9.17;6.70;;;4.70;99.90;;;;;;5021361;28;20465;-70
2021/12/26 11:13:07;;;;;;;9.00;6.37;;;4.70;99.90;;;;;;5020563;28;20813;-71
2021/12/26 11:15:35;;;;;;;8.80;6.93;;;4.70;99.90;;;;;;5020028;28;20437;-72
2021/12/26 11:18:08;;;;;;;9.87;7.13;;;4.70;99.90;;;;;;5022402;28;20425;-72
2021/12/26 11:20:38;;;;;;;8.20;6.00;;;4.80;99.90;;;;;;5021654;28;20445;-72
2021/12/26 11:23:10;;;;;;;8.93;6.60;;;4.70;99.90;;;;;;5021768;28;20413;-73
2021/12/26 11:25:43;;;;;;;8.30;7.40;;;4.70;99.90;;;;;;5021090;28;20758;-71
2021/12/26 11:28:11;;;;;;;7.37;6.50;;;4.70;99.90;;;;;;5017740;28;20430;-73
2021/12/26 11:30:37;;;;;;;7.73;6.87;;;4.80;99.90;;;;;;5016630;28;20513;-72
2021/12/26 11:33:03;;;;;;;10.37;7.13;;;4.80;99.90;;;;;;5012911;28;20927;-70
2021/12/26 11:35:31;;;;;;;7.70;6.70;;;5.00;99.90;;;;;;5014603;28;20203;-77
2021/12/26 11:37:57;;;;;;;8.73;6.73;;;4.90;99.90;;;;;;5015643;28;20444;-73
2021/12/26 11:40:24;;;;;;;7.50;6.47;;;4.90;99.90;;;;;;5015482;28;20807;-71
2021/12/26 11:43:28;;;;;;;9.00;7.40;;;5.10;99.90;;;;;;5015647;28;20961;-72
2021/12/26 11:46:08;;;;;;;8.63;6.90;;;5.10;99.90;;;;;;5021422;28;20494;-71
2021/12/26 11:48:56;;;;;;;9.20;7.33;;;5.00;99.90;;;;;;5019510;28;20404;-71
2021/12/26 11:51:54;;;;;;;9.37;6.80;;;5.10;99.90;;;;;;5018033;28;20436;-70
2021/12/26 11:54:52;;;;;;;8.60;6.97;;;5.10;99.90;;;;;;5014948;28;20483;-71
2021/12/26 11:57:42;;;;;;;7.63;6.60;;;5.20;99.90;;;;;;4998832;28;20435;-72
2021/12/26 12:00:16;;;;;;;10.40;7.40;;;5.30;99.90;;;;;;5016162;28;20426;-73
2021/12/26 12:02:51;;;;;;;9.17;7.30;;;5.40;99.90;;;;;;5016470;28;20428;-72
2021/12/26 12:05:19;;;;;;;7.70;6.77;;;5.30;99.90;;;;;;5016586;28;20839;-72
2021/12/26 12:07:59;;;;;;;9.10;7.37;;;5.20;99.90;;;;;;5016331;28;20418;-72
2021/12/26 12:10:41;;;;;;;9.27;6.70;;;5.20;99.90;;;;;;5016223;28;20472;-72
2021/12/26 12:13:13;;;;;;;9.90;8.17;;;5.20;99.90;;;;;;5017674;28;20397;-72
2021/12/26 12:16:06;;;;;;;8.53;6.70;;;5.30;99.90;;;;;;5018932;28;20412;-72
2021/12/26 12:18:33;;;;;;;9.80;6.90;;;5.40;99.90;;;;;;5019598;28;20427;-72
2021/12/26 12:21:44;;;;;;;9.37;7.73;;;5.60;99.90;;;;;;5018143;28;20519;-73
2021/12/26 12:24:11;;;;;;;10.20;6.70;;;5.60;99.90;;;;;;5017120;28;21013;-72
2021/12/26 12:26:52;;;;;;;8.10;6.97;;;5.60;99.90;;;;;;5016244;28;20923;-72
2021/12/26 12:29:29;;;;;;;8.20;6.67;;;5.60;99.90;;;;;;5017264;28;20505;-72
2021/12/26 12:32:07;;;;;;;8.60;6.97;;;5.50;99.90;;;;;;5029307;23;20497;-71
2021/12/26 12:34:52;;;;;;;9.13;7.53;;;5.60;99.90;;;;;;4999921;28;20442;-70
2021/12/26 12:37:33;;;;;;;10.10;8.20;;;5.60;99.90;;;;;;4994890;28;20395;-70
2021/12/26 12:40:18;;;;;;;10.83;6.73;;;5.60;99.90;;;;;;4995161;28;20410;-70
2021/12/26 12:42:58;;;;;;;8.30;6.97;;;5.50;99.90;;;;;;4975606;28;20404;-70
2021/12/26 12:45:24;;;;;;;8.27;6.30;;;5.50;99.90;;;;;;4976144;28;20789;-71
2021/12/26 12:48:20;;;;;;;7.90;6.47;;;5.60;99.90;;;;;;4974938;28;20492;-71
2021/12/26 12:50:46;;;;;;;11.83;6.37;;;5.60;99.90;;;;;;4973970;28;20682;-70
2021/12/26 12:53:37;;;;;;;8.43;6.90;;;5.60;99.90;;;;;;4974130;28;20479;-69
2021/12/26 12:56:03;;;;;;;8.23;6.03;;;5.60;99.90;;;;;;4974676;28;20529;-71
2021/12/26 12:58:31;;;;;;;7.47;6.10;;;5.40;99.90;;;;;;4974472;28;20416;-70
2021/12/26 13:00:58;;;;;;;6.70;5.90;;;5.40;99.90;;;;;;4974507;28;20251;-70
2021/12/26 13:03:24;;;;;;;10.03;6.93;;;5.40;99.90;;;;;;4974779;28;20429;-70